Columbia, Illinois
Current Conditions -  °F | °C
As of 5:53 AM on Thursday 27 Nov 2014 (Local Time) from KCPS Reporting Station
Overcast Overcast  
Wind Chill: 18°   Ceiling: 1700
Heat Index: 30°   Visibility: 9mi
Dew Point: 24°   Wind: 18mph
Humidity: 79%   Direction: 320°NW
Pressure: 30.42"   Gusts: 23mph
Location:  38.44°N, 90.2°W
Report Text: KCPS 271153Z AUTO 32016G20KT 9SM OVC017 M01/M04 A3042 RMK AO2 SLP304 60000 70026 T10111044 10011 21011 53018 TSNO
Loading
Personal Weather Stations






























Interactive Weather Map New forecast layout! Learn more

10-Day Weather Forecast

Advertisements
Track Severe Weather on mobile